createdAt,value
2022-11-17T00:01:46.913Z,60.63
2022-11-17T00:04:32.732Z,60.67
2022-11-17T00:07:18.551Z,60.74
2022-11-17T00:10:04.991Z,60.91
2022-11-17T00:13:09.262Z,60.80
2022-11-17T00:15:55.062Z,60.90
2022-11-17T00:18:59.547Z,60.97
2022-11-17T00:21:45.789Z,61.10
2022-11-17T00:24:31.659Z,60.73
2022-11-17T00:27:18.140Z,61.44
2022-11-17T00:30:04.907Z,61.32
2022-11-17T00:33:09.393Z,61.81
2022-11-17T00:35:55.432Z,61.68
2022-11-17T00:38:41.493Z,61.62
2022-11-17T00:41:27.505Z,61.59
2022-11-17T00:44:14.320Z,61.36
2022-11-17T00:47:00.460Z,61.42
2022-11-17T00:49:46.469Z,61.35
2022-11-17T00:52:32.740Z,61.77
2022-11-17T00:55:18.605Z,61.66
2022-11-17T00:58:04.386Z,61.68
2022-11-17T01:00:50.466Z,61.78
2022-11-17T01:03:36.769Z,61.57
2022-11-17T01:06:23.168Z,61.61
2022-11-17T01:09:13.815Z,61.78
2022-11-17T01:11:59.984Z,61.84
2022-11-17T01:14:45.953Z,61.87
2022-11-17T01:17:31.801Z,61.73
2022-11-17T01:20:17.769Z,61.88
2022-11-17T01:23:03.907Z,61.98
2022-11-17T01:25:49.816Z,61.71
2022-11-17T01:28:36.885Z,61.89
2022-11-17T01:31:25.722Z,62.16
2022-11-17T01:34:12.744Z,61.81
2022-11-17T01:37:17.289Z,61.83
2022-11-17T01:40:04.660Z,62.03
2022-11-17T01:42:50.530Z,61.77
2022-11-17T01:45:37.287Z,62.24
2022-11-17T01:48:23.326Z,62.07
2022-11-17T01:51:10.832Z,62.08
2022-11-17T01:53:57.159Z,62.17
2022-11-17T01:56:44.504Z,62.52
2022-11-17T01:59:46.430Z,62.38
2022-11-17T02:02:34.534Z,62.30
2022-11-17T02:05:27.287Z,62.28
2022-11-17T02:08:13.063Z,62.80
2022-11-17T02:11:01.101Z,62.48
2022-11-17T02:13:47.405Z,62.49
2022-11-17T02:16:33.514Z,62.67
2022-11-17T02:19:21.338Z,62.33
2022-11-17T02:22:38.112Z,62.51
2022-11-17T02:25:36.156Z,62.48
2022-11-17T02:28:26.719Z,62.53
2022-11-17T02:31:12.560Z,62.83
2022-11-17T02:34:01.856Z,62.65
2022-11-17T02:36:50.774Z,62.72
2022-11-17T02:40:00.871Z,63.09
2022-11-17T02:43:15.911Z,62.85
2022-11-17T02:46:15.938Z,63.02
2022-11-17T02:49:34.983Z,63.43
2022-11-17T02:52:21.656Z,63.00
2022-11-17T02:55:10.501Z,63.30
2022-11-17T02:57:56.233Z,63.08
2022-11-17T03:00:51.163Z,63.24
2022-11-17T03:03:46.411Z,63.13
2022-11-17T03:06:57.794Z,63.04
2022-11-17T03:10:14.325Z,63.01
2022-11-17T03:13:18.705Z,62.96
2022-11-17T03:16:29.816Z,63.00
2022-11-17T03:19:40.046Z,63.15
2022-11-17T03:22:32.700Z,63.02
2022-11-17T03:25:20.720Z,63.03
2022-11-17T03:28:08.380Z,63.06
2022-11-17T03:30:54.409Z,63.25
2022-11-17T03:33:41.372Z,63.40
2022-11-17T03:36:32.998Z,63.32
2022-11-17T03:39:32.100Z,63.05
2022-11-17T03:42:27.754Z,63.74
2022-11-17T03:45:23.976Z,63.30
2022-11-17T03:48:16.001Z,63.41
2022-11-17T03:51:08.124Z,63.54
2022-11-17T03:53:54.702Z,63.46
2022-11-17T03:56:53.171Z,64.04
2022-11-17T04:00:00.924Z,63.73
2022-11-17T04:02:48.336Z,63.09
2022-11-17T04:05:34.580Z,63.18
2022-11-17T04:08:22.868Z,63.05
2022-11-17T04:11:27.566Z,62.92
2022-11-17T04:14:32.036Z,62.70
2022-11-17T04:17:18.112Z,62.63
2022-11-17T04:20:04.572Z,62.73
2022-11-17T04:23:07.147Z,62.53
2022-11-17T04:26:14.636Z,62.24
2022-11-17T04:29:00.851Z,62.32
2022-11-17T04:31:46.974Z,62.04
2022-11-17T04:34:33.060Z,61.75
2022-11-17T04:37:19.062Z,62.22
2022-11-17T04:40:05.624Z,61.71
2022-11-17T04:42:51.757Z,61.68
2022-11-17T04:45:37.872Z,61.86
2022-11-17T04:48:23.656Z,62.05
2022-11-17T04:51:10.153Z,61.90
2022-11-17T04:53:56.647Z,62.13
2022-11-17T04:56:42.616Z,62.04
2022-11-17T04:59:28.921Z,62.10
2022-11-17T05:02:14.949Z,61.90
2022-11-17T05:05:00.823Z,61.90
2022-11-17T05:07:46.725Z,61.97
2022-11-17T05:10:51.135Z,61.95
2022-11-17T05:13:37.382Z,61.66
2022-11-17T05:16:43.604Z,61.94
2022-11-17T05:19:30.718Z,62.00
2022-11-17T05:22:55.273Z,61.93
2022-11-17T05:25:40.972Z,62.17
2022-11-17T05:28:27.196Z,61.83
2022-11-17T05:31:13.582Z,62.06
2022-11-17T05:34:00.538Z,62.01
2022-11-17T05:36:46.795Z,61.88
2022-11-17T05:39:33.062Z,61.67
2022-11-17T05:42:19.606Z,61.71
2022-11-17T05:45:05.975Z,61.98
2022-11-17T05:47:51.885Z,61.94
2022-11-17T05:50:37.748Z,61.76
2022-11-17T05:53:24.315Z,62.01
2022-11-17T05:56:26.814Z,62.05
2022-11-17T05:59:27.299Z,62.13
2022-11-17T06:02:31.050Z,62.41
2022-11-17T06:05:20.409Z,62.17
2022-11-17T06:08:07.687Z,62.05
2022-11-17T06:10:53.523Z,62.21
2022-11-17T06:13:39.704Z,62.17
2022-11-17T06:16:29.247Z,62.21
2022-11-17T06:19:20.475Z,62.25
2022-11-17T06:22:14.042Z,62.15
2022-11-17T06:25:02.248Z,62.50
2022-11-17T06:27:48.960Z,62.42
2022-11-17T06:30:36.641Z,61.99
2022-11-17T06:33:22.798Z,62.10
2022-11-17T06:36:09.276Z,62.49
2022-11-17T06:38:55.526Z,62.34
2022-11-17T06:41:41.512Z,62.64
2022-11-17T06:44:27.652Z,62.58
2022-11-17T06:47:13.557Z,62.46
2022-11-17T06:49:59.483Z,62.43
2022-11-17T06:52:45.503Z,62.59
2022-11-17T06:55:31.633Z,62.80
2022-11-17T06:58:17.687Z,62.56
2022-11-17T07:01:09.131Z,62.34
2022-11-17T07:03:55.072Z,62.25
2022-11-17T07:06:41.394Z,62.21
2022-11-17T07:09:27.302Z,62.37
2022-11-17T07:12:13.271Z,62.44
2022-11-17T07:14:58.969Z,62.55
2022-11-17T07:17:45.169Z,62.46
2022-11-17T07:20:31.461Z,62.58
2022-11-17T07:23:17.394Z,62.33
2022-11-17T07:26:03.705Z,62.53
2022-11-17T07:28:49.621Z,62.90
2022-11-17T07:31:36.889Z,62.42
2022-11-17T07:34:23.055Z,62.39
2022-11-17T07:37:09.215Z,62.95
2022-11-17T07:39:55.022Z,62.56
2022-11-17T07:42:41.014Z,62.56
2022-11-17T07:45:31.927Z,62.56
2022-11-17T07:48:18.215Z,62.37
2022-11-17T07:51:04.853Z,62.44
2022-11-17T07:53:51.074Z,62.45
2022-11-17T07:56:36.979Z,62.13
2022-11-17T07:59:22.850Z,62.16
2022-11-17T08:02:09.831Z,62.08
2022-11-17T08:04:55.786Z,61.85
2022-11-17T08:07:41.514Z,61.94
2022-11-17T08:10:28.365Z,62.13
2022-11-17T08:13:15.490Z,62.35
2022-11-17T08:16:02.118Z,62.12
2022-11-17T08:18:52.049Z,62.41
2022-11-17T08:21:38.697Z,62.05
2022-11-17T08:24:24.601Z,62.16
2022-11-17T08:27:10.664Z,61.93
2022-11-17T08:29:56.946Z,61.99
2022-11-17T08:32:48.140Z,62.07
2022-11-17T08:35:37.414Z,61.98
2022-11-17T08:38:28.895Z,61.72
2022-11-17T08:41:14.688Z,61.71
2022-11-17T08:44:00.522Z,62.00
2022-11-17T08:46:46.526Z,62.08
2022-11-17T08:49:32.307Z,62.08
2022-11-17T08:52:19.417Z,62.13
2022-11-17T08:55:07.020Z,61.91
2022-11-17T08:57:52.805Z,61.67
2022-11-17T09:00:39.821Z,62.06
2022-11-17T09:03:25.468Z,61.68
2022-11-17T09:06:12.500Z,61.79
2022-11-17T09:08:58.745Z,61.71
2022-11-17T09:11:44.862Z,61.85
2022-11-17T09:14:31.654Z,61.73
2022-11-17T09:17:17.491Z,61.58
2022-11-17T09:20:03.680Z,61.18
2022-11-17T09:22:49.753Z,61.35
2022-11-17T09:25:35.541Z,60.95
2022-11-17T09:28:23.740Z,61.54
2022-11-17T09:31:12.273Z,61.39
2022-11-17T09:34:00.828Z,61.12
2022-11-17T09:36:49.617Z,61.22
2022-11-17T09:39:35.534Z,61.14
2022-11-17T09:42:22.708Z,61.34
2022-11-17T09:45:18.437Z,61.27
2022-11-17T09:51:23.951Z,60.72
2022-11-17T09:54:27.559Z,61.18
2022-11-17T09:57:20.979Z,60.52
2022-11-17T10:00:14.966Z,60.83
2022-11-17T10:03:01.939Z,60.64
2022-11-17T10:05:49.167Z,60.86
2022-11-17T10:08:40.019Z,60.36
2022-11-17T10:11:34.173Z,60.27
2022-11-17T10:14:22.090Z,60.22
2022-11-17T10:17:09.506Z,60.64
2022-11-17T10:19:55.545Z,60.12
2022-11-17T10:22:41.831Z,60.09
2022-11-17T10:25:48.750Z,60.41
2022-11-17T10:28:34.948Z,60.71
2022-11-17T10:31:21.066Z,60.36
2022-11-17T10:34:12.072Z,60.29
2022-11-17T10:37:04.048Z,60.49
2022-11-17T10:39:49.863Z,60.15
2022-11-17T10:42:35.862Z,60.25
2022-11-17T10:45:21.687Z,60.44
2022-11-17T10:48:29.529Z,60.30
2022-11-17T10:51:19.607Z,60.49
2022-11-17T10:54:07.028Z,60.48
2022-11-17T10:56:55.761Z,60.14
2022-11-17T10:59:55.217Z,60.31
2022-11-17T11:02:43.191Z,60.28
2022-11-17T11:05:28.897Z,60.32
2022-11-17T11:08:19.626Z,60.25
2022-11-17T11:11:11.541Z,60.22
2022-11-17T11:14:08.187Z,60.06
2022-11-17T11:16:55.363Z,60.13
2022-11-17T11:19:54.358Z,60.03
2022-11-17T11:22:56.628Z,59.97
2022-11-17T11:25:49.247Z,59.89
2022-11-17T11:28:46.391Z,60.18
2022-11-17T11:31:41.285Z,60.25
2022-11-17T11:35:04.575Z,60.42
2022-11-17T11:38:19.488Z,60.00
2022-11-17T11:41:08.286Z,60.00
2022-11-17T11:44:15.958Z,60.11
2022-11-17T11:47:17.010Z,60.29
2022-11-17T11:50:14.375Z,60.10
2022-11-17T11:53:07.499Z,60.16
2022-11-17T11:56:02.540Z,60.22
2022-11-17T11:58:59.487Z,59.97
2022-11-17T12:01:51.661Z,60.09
2022-11-17T12:04:48.001Z,60.16
2022-11-17T12:07:58.982Z,60.07
2022-11-17T12:10:58.725Z,60.03
2022-11-17T12:13:51.226Z,60.07
2022-11-17T12:16:43.199Z,59.90
2022-11-17T12:19:47.023Z,60.23
2022-11-17T12:22:32.932Z,60.09
2022-11-17T12:25:24.670Z,60.00
2022-11-17T12:28:28.989Z,59.98
2022-11-17T12:31:46.559Z,60.03
2022-11-17T12:34:35.907Z,59.94
2022-11-17T12:37:23.040Z,60.06
2022-11-17T12:40:11.593Z,59.86
2022-11-17T12:43:15.848Z,60.08
2022-11-17T12:46:14.295Z,59.60
2022-11-17T12:49:07.917Z,59.88
2022-11-17T12:52:02.397Z,59.54
2022-11-17T12:54:56.662Z,59.25
2022-11-17T12:57:44.643Z,59.28
2022-11-17T13:00:34.898Z,58.99
2022-11-17T13:03:42.635Z,58.80
2022-11-17T13:06:35.339Z,58.56
2022-11-17T13:09:26.942Z,58.09
2022-11-17T13:12:13.018Z,57.85
2022-11-17T13:15:02.626Z,57.89
2022-11-17T13:17:49.650Z,58.58
2022-11-17T13:20:35.807Z,58.76
2022-11-17T13:23:34.519Z,58.33
2022-11-17T13:26:35.872Z,56.32
2022-11-17T13:29:22.619Z,54.41
2022-11-17T13:32:17.717Z,53.99
2022-11-17T13:35:23.121Z,54.13
2022-11-17T13:38:19.554Z,54.31
2022-11-17T13:41:06.745Z,54.35
2022-11-17T13:43:53.537Z,54.60
2022-11-17T13:46:39.503Z,54.84
2022-11-17T13:49:34.800Z,55.13
2022-11-17T13:52:45.396Z,55.57
2022-11-17T13:55:33.421Z,55.52
2022-11-17T13:58:26.436Z,55.63
2022-11-17T14:01:15.803Z,55.77
2022-11-17T14:04:20.641Z,56.05
2022-11-17T14:07:10.632Z,56.11
2022-11-17T14:10:22.773Z,56.14
2022-11-17T14:13:23.706Z,56.48
2022-11-17T14:16:39.813Z,56.57
2022-11-17T14:19:31.990Z,56.34
2022-11-17T14:22:24.787Z,56.30
2022-11-17T14:25:15.628Z,56.44
2022-11-17T14:28:01.838Z,56.47
2022-11-17T14:30:48.088Z,56.49
2022-11-17T14:33:34.062Z,56.61
2022-11-17T14:36:20.031Z,56.65
2022-11-17T14:39:17.899Z,56.57
2022-11-17T14:42:04.386Z,56.71
2022-11-17T14:44:50.174Z,56.73
2022-11-17T14:47:36.263Z,56.46
2022-11-17T14:50:22.085Z,56.53
2022-11-17T14:53:08.170Z,56.92
2022-11-17T14:55:54.561Z,56.97
2022-11-17T14:58:40.483Z,57.22
2022-11-17T15:01:30.446Z,56.91
2022-11-17T15:04:48.397Z,57.33
2022-11-17T15:07:23.027Z,57.24
2022-11-17T15:10:10.234Z,57.42
2022-11-17T15:12:56.279Z,57.65
2022-11-17T15:15:42.229Z,57.70
2022-11-17T15:18:28.654Z,57.76
2022-11-17T15:21:16.078Z,57.62
2022-11-17T15:24:04.116Z,57.59
2022-11-17T15:26:50.078Z,57.90
2022-11-17T15:29:35.986Z,57.91
2022-11-17T15:32:21.815Z,58.07
2022-11-17T15:35:08.123Z,57.91
2022-11-17T15:37:53.966Z,57.92
2022-11-17T15:40:40.299Z,57.96
2022-11-17T15:43:28.103Z,58.05
2022-11-17T15:46:18.681Z,58.01
2022-11-17T15:49:05.020Z,58.06
2022-11-17T15:51:50.686Z,58.05
2022-11-17T15:54:36.665Z,58.13
2022-11-17T15:57:22.601Z,58.32
2022-11-17T16:00:09.246Z,58.32
2022-11-17T16:02:58.590Z,58.43
2022-11-17T16:05:45.282Z,58.21
2022-11-17T16:08:31.910Z,58.43
2022-11-17T16:11:18.068Z,58.62
2022-11-17T16:14:05.423Z,58.37
2022-11-17T16:16:51.855Z,58.49
2022-11-17T16:19:37.955Z,58.54
2022-11-17T16:22:23.898Z,58.68
2022-11-17T16:25:10.525Z,58.68
2022-11-17T16:27:56.506Z,58.54
2022-11-17T16:30:42.314Z,58.57
2022-11-17T16:33:28.281Z,58.68
2022-11-17T16:36:14.468Z,58.69
2022-11-17T16:39:02.293Z,58.87
2022-11-17T16:41:51.319Z,58.94
2022-11-17T16:44:37.227Z,58.96
2022-11-17T16:47:23.335Z,59.03
2022-11-17T16:50:09.708Z,58.78
2022-11-17T16:52:55.837Z,58.93
2022-11-17T16:55:41.767Z,58.71
2022-11-17T16:58:27.727Z,59.12
2022-11-17T17:01:16.761Z,58.76
2022-11-17T17:04:06.618Z,58.91
2022-11-17T17:06:52.824Z,58.66
2022-11-17T17:09:39.010Z,59.09
2022-11-17T17:12:25.026Z,58.66
2022-11-17T17:15:11.383Z,59.19
2022-11-17T17:17:57.489Z,59.07
2022-11-17T17:20:51.823Z,59.37
2022-11-17T17:23:38.063Z,59.06
2022-11-17T17:26:26.173Z,58.95
2022-11-17T17:29:12.783Z,59.00
2022-11-17T17:31:59.108Z,59.15
2022-11-17T17:34:45.289Z,59.01
2022-11-17T17:37:32.515Z,59.01
2022-11-17T17:40:18.291Z,59.13
2022-11-17T17:43:04.141Z,59.08
2022-11-17T17:45:50.026Z,58.88
2022-11-17T17:48:37.802Z,59.18
2022-11-17T17:51:25.271Z,58.88
2022-11-17T17:54:17.251Z,59.17
2022-11-17T17:57:03.215Z,59.05
2022-11-17T17:59:49.282Z,58.83
2022-11-17T18:02:36.239Z,58.67
2022-11-17T18:05:22.662Z,58.88
2022-11-17T18:08:08.952Z,58.70
2022-11-17T18:10:59.740Z,58.74
2022-11-17T18:13:47.608Z,58.99
2022-11-17T18:16:34.128Z,58.90
2022-11-17T18:19:20.409Z,59.27
2022-11-17T18:22:06.541Z,58.79
2022-11-17T18:24:57.353Z,58.72
2022-11-17T18:27:44.112Z,59.04
2022-11-17T18:30:30.029Z,58.72
2022-11-17T18:33:16.425Z,58.88
2022-11-17T18:36:05.081Z,58.53
2022-11-17T18:38:52.838Z,58.63
2022-11-17T18:41:38.972Z,58.76
2022-11-17T18:44:25.182Z,58.91
2022-11-17T18:47:11.318Z,58.96
2022-11-17T18:49:57.245Z,59.03
2022-11-17T18:52:43.146Z,59.11
2022-11-17T18:55:29.120Z,58.93
2022-11-17T18:58:14.941Z,58.79
2022-11-17T19:01:15.016Z,59.06
2022-11-17T19:04:01.202Z,59.16
2022-11-17T19:06:47.352Z,58.98
2022-11-17T19:09:33.244Z,58.94
2022-11-17T19:12:19.289Z,58.90
2022-11-17T19:15:05.745Z,58.99
2022-11-17T19:17:51.466Z,58.87
2022-11-17T19:20:37.456Z,59.17
2022-11-17T19:23:23.374Z,59.01
2022-11-17T19:26:20.715Z,58.95
2022-11-17T19:29:15.531Z,58.92
2022-11-17T19:32:03.161Z,58.98
2022-11-17T19:34:49.082Z,59.08
2022-11-17T19:37:35.119Z,59.06
2022-11-17T19:40:21.062Z,59.21
2022-11-17T19:43:06.923Z,59.06
2022-11-17T19:45:57.536Z,59.13
2022-11-17T19:48:44.416Z,59.19
2022-11-17T19:51:32.612Z,59.12
2022-11-17T19:54:18.785Z,59.36
2022-11-17T19:57:04.982Z,59.03
2022-11-17T19:59:50.989Z,59.28
2022-11-17T20:02:36.950Z,59.27
2022-11-17T20:05:22.878Z,59.20
2022-11-17T20:08:09.234Z,59.13
2022-11-17T20:11:02.989Z,59.19
2022-11-17T20:13:49.172Z,59.21
2022-11-17T20:16:36.855Z,59.00
2022-11-17T20:19:22.689Z,58.94
2022-11-17T20:22:09.382Z,59.13
2022-11-17T20:25:00.566Z,59.03
2022-11-17T20:27:49.399Z,59.18
2022-11-17T20:30:37.855Z,59.12
2022-11-17T20:33:23.957Z,59.06
2022-11-17T20:36:13.147Z,59.10
2022-11-17T20:39:00.992Z,59.21
2022-11-17T20:41:47.263Z,59.17
2022-11-17T20:44:33.354Z,59.10
2022-11-17T20:47:19.314Z,58.68
2022-11-17T20:50:05.891Z,58.83
2022-11-17T20:52:51.779Z,58.50
2022-11-17T20:55:38.586Z,58.85
2022-11-17T20:58:25.554Z,59.08
2022-11-17T21:01:23.852Z,58.73
2022-11-17T21:04:11.170Z,58.71
2022-11-17T21:06:57.365Z,59.17
2022-11-17T21:09:43.485Z,59.35
2022-11-17T21:12:29.381Z,59.17
2022-11-17T21:15:15.191Z,58.67
2022-11-17T21:18:36.291Z,59.07
2022-11-17T21:21:22.361Z,58.98
2022-11-17T21:24:09.290Z,59.18
2022-11-17T21:26:55.487Z,58.90
2022-11-17T21:29:42.087Z,58.57
2022-11-17T21:32:28.147Z,59.00
2022-11-17T21:35:14.602Z,58.75
2022-11-17T21:38:00.540Z,58.59
2022-11-17T21:40:46.522Z,58.31
2022-11-17T21:43:32.655Z,58.83
2022-11-17T21:46:23.309Z,58.96
2022-11-17T21:49:09.276Z,59.00
2022-11-17T21:51:55.188Z,58.86
2022-11-17T21:54:41.252Z,58.88
2022-11-17T21:57:27.146Z,58.48
2022-11-17T22:00:13.801Z,58.68
2022-11-17T22:02:59.858Z,58.59
2022-11-17T22:05:45.706Z,58.92
2022-11-17T22:08:31.748Z,58.64
2022-11-17T22:11:40.876Z,58.36
2022-11-17T22:14:26.664Z,58.59
2022-11-17T22:17:13.254Z,58.76
2022-11-17T22:19:59.487Z,58.91
2022-11-17T22:22:47.688Z,58.56
2022-11-17T22:25:49.056Z,58.45
2022-11-17T22:28:34.911Z,59.04
2022-11-17T22:31:21.565Z,58.85
2022-11-17T22:34:07.432Z,59.04
2022-11-17T22:36:53.451Z,58.74
2022-11-17T22:39:39.439Z,58.44
2022-11-17T22:42:25.613Z,58.77
2022-11-17T22:45:11.582Z,58.57
2022-11-17T22:47:57.421Z,58.77
2022-11-17T22:50:43.279Z,58.16
2022-11-17T22:53:29.167Z,58.73
2022-11-17T22:56:15.070Z,58.57
2022-11-17T22:59:01.122Z,58.28
2022-11-17T23:01:47.136Z,58.45
2022-11-17T23:04:32.983Z,58.78
2022-11-17T23:07:19.187Z,58.72
2022-11-17T23:10:06.106Z,58.86
2022-11-17T23:12:52.545Z,58.51
2022-11-17T23:15:39.581Z,58.63
2022-11-17T23:18:25.678Z,58.83
2022-11-17T23:21:11.788Z,58.83
2022-11-17T23:23:57.934Z,58.66
2022-11-17T23:26:43.808Z,58.95
2022-11-17T23:29:29.886Z,58.70
2022-11-17T23:32:15.975Z,59.19
2022-11-17T23:35:01.887Z,58.67
2022-11-17T23:37:47.895Z,58.42
2022-11-17T23:40:33.990Z,58.33
2022-11-17T23:43:19.933Z,58.70
2022-11-17T23:46:06.943Z,58.47
2022-11-17T23:48:54.133Z,58.61
2022-11-17T23:51:40.134Z,58.55
2022-11-17T23:54:26.058Z,58.33
2022-11-17T23:57:11.946Z,58.33
2022-11-17T23:59:58.062Z,58.78
